Colbert, Georgia
Current Conditions -  °F | °C
As of 2:51 AM on Thursday 27 Nov 2014 (Local Time) from KAHN Reporting Station
Clear Clear  
Wind Chill: 38°   Ceiling: Unl
Heat Index: 42°   Visibility: 10mi
Dew Point: 30°   Wind: 6mph
Humidity: 62%   Direction: 240°WSW
Pressure: 30.05"   Gusts: NA
Location:  34.04°N, 83.21°W
Report Text: KAHN 270751Z AUTO 24005KT 10SM CLR 06/M01 A3005 RMK AO2 SLP176 T00561011
Loading
Personal Weather Stations






























Interactive Weather Map New forecast layout! Learn more

10-Day Weather Forecast

Advertisements
Track Severe Weather on mobile